Time;durP1;ratioP1;P1;durP2;ratioP2;P2;SDS_P1;SDS_P2;PMS_P1;PMS_P2;Temp;Humidity;BMP_temperature;BMP_pressure;BME280_temperature;BME280_humidity;BME280_pressure;Samples;Min_cycle;Max_cycle;Signal;HPM_P1;HPM_P2
2022/08/20 21:16:31;;;;;;;15.57;4.95;;;;;;;;;;4415441;32;20689;-83
2022/08/20 21:18:59;;;;;;;10.10;4.20;;;;;;;;;;4416354;32;20542;-82
2022/08/20 21:21:26;;;;;;;10.82;4.30;;;;;;;;;;4416377;32;20214;-82
2022/08/20 21:23:54;;;;;;;12.52;4.78;;;;;;;;;;4416322;32;20626;-82
2022/08/20 21:26:21;;;;;;;12.37;5.03;;;;;;;;;;4416225;32;20648;-82
2022/08/20 21:28:49;;;;;;;11.32;5.30;;;;;;;;;;4416279;32;20546;-84
2022/08/20 21:31:17;;;;;;;10.38;5.28;;;;;;;;;;4416283;32;20366;-86
2022/08/20 21:33:46;;;;;;;8.35;4.65;;;;;;;;;;4416545;32;20222;-86
2022/08/20 21:36:14;;;;;;;9.52;4.50;;;;;;;;;;4418560;32;20666;-84
2022/08/20 21:38:42;;;;;;;11.30;5.15;;;;;;;;;;4418889;32;20708;-85
2022/08/20 21:41:10;;;;;;;12.37;4.40;;;;;;;;;;4416715;32;20386;-85
2022/08/20 21:43:37;;;;;;;7.47;4.70;;;;;;;;;;4416469;32;20619;-81
2022/08/20 21:46:13;;;;;;;9.15;4.93;;;;;;;;;;4416035;32;20536;-82
2022/08/20 21:48:41;;;;;;;15.52;4.82;;;;;;;;;;4416327;32;20813;-83
2022/08/20 21:51:10;;;;;;;13.45;4.87;;;;;;;;;;4415943;32;20637;-84
2022/08/20 21:53:38;;;;;;;9.18;5.05;;;;;;;;;;4416082;32;20589;-85
2022/08/20 21:56:06;;;;;;;12.80;4.82;;;;;;;;;;4415725;32;20578;-83
2022/08/20 21:58:33;;;;;;;12.45;4.65;;;;;;;;;;4416073;32;20557;-82
2022/08/20 22:01:04;;;;;;;9.20;4.65;;;;;;;;;;4415786;32;20634;-82
2022/08/20 22:03:34;;;;;;;6.00;3.85;;;;;;;;;;4416134;32;20653;-82
2022/08/20 22:06:03;;;;;;;13.88;4.65;;;;;;;;;;4415750;32;20706;-82
2022/08/20 22:08:33;;;;;;;15.63;4.70;;;;;;;;;;4414547;32;20388;-82
2022/08/20 22:11:01;;;;;;;12.32;4.00;;;;;;;;;;4415557;32;20543;-82
2022/08/20 22:13:31;;;;;;;16.00;4.15;;;;;;;;;;4415608;32;20489;-82
2022/08/20 22:15:59;;;;;;;7.20;4.10;;;;;;;;;;4415378;32;20323;-82
2022/08/20 22:18:27;;;;;;;12.00;5.07;;;;;;;;;;4415663;32;20601;-82
2022/08/20 22:20:55;;;;;;;10.80;4.80;;;;;;;;;;4415366;32;20578;-82
2022/08/20 22:23:23;;;;;;;8.63;4.03;;;;;;;;;;4415365;32;20318;-83
2022/08/20 22:25:53;;;;;;;13.00;3.83;;;;;;;;;;4413726;32;20676;-83
2022/08/20 22:28:22;;;;;;;12.98;3.58;;;;;;;;;;4405453;32;20574;-84
2022/08/20 22:30:49;;;;;;;9.85;3.12;;;;;;;;;;4405453;32;20608;-82
2022/08/20 22:33:21;;;;;;;9.98;2.33;;;;;;;;;;4405293;32;20611;-82
2022/08/20 22:35:50;;;;;;;12.55;2.35;;;;;;;;;;4405341;32;20646;-82
2022/08/20 22:38:18;;;;;;;5.18;2.53;;;;;;;;;;4405198;32;20362;-82
2022/08/20 22:40:46;;;;;;;9.38;4.35;;;;;;;;;;4405226;32;20509;-83
2022/08/20 22:43:16;;;;;;;6.55;2.25;;;;;;;;;;4405347;32;20564;-84
2022/08/20 22:45:46;;;;;;;6.57;2.55;;;;;;;;;;4405006;32;20674;-86
2022/08/20 22:48:17;;;;;;;7.35;3.08;;;;;;;;;;4405362;32;20610;-83
2022/08/20 22:50:45;;;;;;;10.63;3.28;;;;;;;;;;4404997;32;20225;-82
2022/08/20 22:53:14;;;;;;;9.38;3.20;;;;;;;;;;4405142;32;20567;-83
2022/08/20 22:55:41;;;;;;;8.45;2.70;;;;;;;;;;4404995;32;20739;-83
2022/08/20 22:58:09;;;;;;;11.05;3.72;;;;;;;;;;4404804;32;20269;-83
2022/08/20 23:00:39;;;;;;;7.80;2.75;;;;;;;;;;4404870;32;20286;-83
2022/08/20 23:03:07;;;;;;;10.82;3.10;;;;;;;;;;4405200;32;20575;-82
2022/08/20 23:05:37;;;;;;;5.70;2.47;;;;;;;;;;4404804;32;20639;-82
2022/08/20 23:08:07;;;;;;;12.63;2.90;;;;;;;;;;4404839;32;20283;-83
2022/08/20 23:10:35;;;;;;;6.25;2.20;;;;;;;;;;4404674;32;20284;-83
2022/08/20 23:13:03;;;;;;;5.68;2.33;;;;;;;;;;4404588;32;20541;-83
2022/08/20 23:15:33;;;;;;;6.85;2.65;;;;;;;;;;4404467;32;20721;-83
2022/08/20 23:18:05;;;;;;;6.90;2.53;;;;;;;;;;4405021;32;20532;-83
2022/08/20 23:20:32;;;;;;;10.88;3.55;;;;;;;;;;4404602;32;20544;-83
2022/08/20 23:23:00;;;;;;;9.07;3.10;;;;;;;;;;4404618;32;20205;-83
2022/08/20 23:25:28;;;;;;;2.75;2.20;;;;;;;;;;4404677;32;20597;-83
2022/08/20 23:27:57;;;;;;;11.63;3.08;;;;;;;;;;4404563;32;20265;-82
2022/08/20 23:30:26;;;;;;;6.93;2.25;;;;;;;;;;4404462;32;20628;-83
2022/08/20 23:32:54;;;;;;;10.13;2.40;;;;;;;;;;4404822;32;20519;-82
2022/08/20 23:35:23;;;;;;;9.93;2.75;;;;;;;;;;4404242;32;20622;-83
2022/08/20 23:37:58;;;;;;;9.05;2.90;;;;;;;;;;4404027;32;20610;-83
2022/08/20 23:40:27;;;;;;;2.60;2.30;;;;;;;;;;4404407;32;20621;-82
2022/08/20 23:42:57;;;;;;;6.25;2.70;;;;;;;;;;4404336;32;20563;-83
2022/08/20 23:45:25;;;;;;;14.15;4.72;;;;;;;;;;4404610;32;20352;-83
2022/08/20 23:47:53;;;;;;;11.15;3.25;;;;;;;;;;4404172;32;20650;-82
2022/08/20 23:50:25;;;;;;;10.05;3.15;;;;;;;;;;4404193;32;20232;-80
2022/08/20 23:52:52;;;;;;;10.10;4.53;;;;;;;;;;4404640;32;20396;-83
2022/08/20 23:55:21;;;;;;;9.70;3.15;;;;;;;;;;4404619;32;20536;-83
2022/08/20 23:57:49;;;;;;;8.27;2.80;;;;;;;;;;4404720;32;20570;-81
